Time;durP1;ratioP1;P1;durP2;ratioP2;P2;SDS_P1;SDS_P2;PMS_P1;PMS_P2;Temp;Humidity;BMP_temperature;BMP_pressure;BME280_temperature;BME280_humidity;BME280_pressure;Samples;Min_cycle;Max_cycle;Signal;HPM_P1;HPM_P2
2021/01/26 00:00:52;;;;;;;28.65;20.27;;;3.00;98.80;;;;;;5106441;28;20185;-78
2021/01/26 00:03:18;;;;;;;27.58;19.00;;;3.00;98.70;;;;;;5108478;28;20257;-78
2021/01/26 00:05:44;;;;;;;30.17;18.95;;;3.00;98.60;;;;;;5110902;28;20652;-78
2021/01/26 00:08:10;;;;;;;27.47;18.50;;;3.00;98.80;;;;;;5108317;28;20218;-78
2021/01/26 00:10:36;;;;;;;32.33;19.05;;;3.00;98.80;;;;;;5109101;28;20705;-78
2021/01/26 00:13:04;;;;;;;30.95;21.48;;;3.00;98.80;;;;;;5109747;28;20631;-78
2021/01/26 00:15:30;;;;;;;28.02;18.30;;;2.90;98.70;;;;;;5110270;28;20188;-78
2021/01/26 00:17:56;;;;;;;30.00;19.50;;;2.90;98.90;;;;;;5110385;28;20225;-78
2021/01/26 00:20:22;;;;;;;29.90;21.67;;;2.90;99.30;;;;;;5110186;28;20244;-78
2021/01/26 00:22:48;;;;;;;28.17;19.25;;;2.90;98.90;;;;;;5111066;28;20393;-78
2021/01/26 00:25:20;;;;;;;26.60;19.95;;;2.90;98.90;;;;;;5110155;28;20176;-78
2021/01/26 00:27:45;;;;;;;29.42;20.80;;;2.90;99.00;;;;;;5110278;28;20172;-78
2021/01/26 00:30:20;;;;;;;33.00;21.50;;;2.80;99.10;;;;;;5109271;28;20521;-78
2021/01/26 00:32:46;;;;;;;28.17;19.40;;;2.90;99.00;;;;;;5110045;28;20171;-78
2021/01/26 00:35:13;;;;;;;29.80;20.70;;;2.80;99.30;;;;;;5109546;28;20184;-78
2021/01/26 00:37:39;;;;;;;31.48;20.50;;;2.80;99.40;;;;;;5109865;28;20176;-78
2021/01/26 00:40:06;;;;;;;31.20;21.80;;;2.80;99.30;;;;;;5109834;28;20183;-78
2021/01/26 00:42:31;;;;;;;29.73;20.90;;;2.80;99.20;;;;;;5108974;28;20196;-78
2021/01/26 00:44:57;;;;;;;31.90;20.77;;;2.80;99.20;;;;;;5108765;28;20176;-78
2021/01/26 00:47:23;;;;;;;30.40;21.43;;;2.80;99.30;;;;;;5109658;28;20624;-78
2021/01/26 00:49:48;;;;;;;28.30;20.10;;;2.80;99.30;;;;;;5109472;28;20596;-78
2021/01/26 00:52:14;;;;;;;35.23;22.20;;;2.80;99.30;;;;;;5109749;28;20184;-78
2021/01/26 00:54:40;;;;;;;32.30;21.27;;;2.80;99.40;;;;;;5108891;28;20656;-78
2021/01/26 00:57:05;;;;;;;29.80;20.47;;;2.80;99.50;;;;;;5107714;28;20228;-78
2021/01/26 00:59:32;;;;;;;33.08;21.92;;;2.70;99.50;;;;;;5109602;28;20610;-78
2021/01/26 01:01:58;;;;;;;32.30;21.10;;;2.80;99.50;;;;;;5108366;28;20202;-78
2021/01/26 01:04:24;;;;;;;31.55;21.60;;;2.70;99.40;;;;;;5109083;28;20168;-78
2021/01/26 01:06:50;;;;;;;34.73;20.70;;;2.70;99.60;;;;;;5109085;28;20176;-78
2021/01/26 01:09:16;;;;;;;29.00;20.00;;;2.70;99.50;;;;;;5107732;28;20754;-78
2021/01/26 01:11:41;;;;;;;31.10;20.20;;;2.70;99.70;;;;;;5109417;28;20500;-78
2021/01/26 01:14:07;;;;;;;32.30;20.90;;;2.70;99.60;;;;;;5109089;28;20604;-78
2021/01/26 01:16:33;;;;;;;30.77;21.60;;;2.70;99.60;;;;;;5109155;28;20182;-78
2021/01/26 01:18:59;;;;;;;31.60;20.00;;;2.70;99.80;;;;;;5108168;28;20575;-78
2021/01/26 01:21:25;;;;;;;29.27;19.43;;;2.70;99.50;;;;;;5108595;27;20183;-78
2021/01/26 01:23:50;;;;;;;31.33;20.90;;;2.70;99.40;;;;;;5108631;28;20566;-78
2021/01/26 01:26:16;;;;;;;29.37;20.27;;;2.70;99.60;;;;;;5108716;28;20171;-78
2021/01/26 01:28:42;;;;;;;32.83;19.07;;;2.70;99.60;;;;;;5108958;28;20183;-78
2021/01/26 01:31:07;;;;;;;35.00;21.93;;;2.80;99.50;;;;;;5108556;28;20171;-78
2021/01/26 01:33:33;;;;;;;32.00;19.50;;;2.80;99.70;;;;;;5108576;28;20179;-78
2021/01/26 01:35:59;;;;;;;34.00;19.70;;;2.80;99.40;;;;;;5107819;28;20172;-78
2021/01/26 01:38:24;;;;;;;36.17;20.93;;;2.80;99.40;;;;;;5109113;28;20250;-78
2021/01/26 01:40:52;;;;;;;27.87;19.47;;;2.80;99.50;;;;;;5108472;28;20184;-78
2021/01/26 01:43:18;;;;;;;30.63;19.92;;;2.80;99.60;;;;;;5109231;28;20207;-78
2021/01/26 01:45:44;;;;;;;28.30;20.23;;;2.80;99.50;;;;;;5108233;28;20180;-78
2021/01/26 01:48:23;;;;;;;32.23;21.37;;;2.80;99.40;;;;;;5108369;28;20176;-78
2021/01/26 01:50:53;;;;;;;30.20;20.88;;;2.80;99.60;;;;;;5108102;28;20168;-78
2021/01/26 01:53:37;;;;;;;30.30;19.30;;;2.80;99.50;;;;;;5107290;28;20752;-78
2021/01/26 01:56:20;;;;;;;32.25;21.70;;;2.80;99.40;;;;;;5108544;28;20223;-78
2021/01/26 01:58:51;;;;;;;30.48;20.00;;;2.80;99.50;;;;;;5108079;28;20213;-78
2021/01/26 02:01:19;;;;;;;31.90;20.73;;;2.80;99.60;;;;;;5108451;28;20160;-78
2021/01/26 02:03:50;;;;;;;27.77;20.23;;;2.80;99.60;;;;;;5108368;28;20676;-78
2021/01/26 02:06:17;;;;;;;30.52;19.52;;;2.70;99.60;;;;;;5108363;28;20156;-78
2021/01/26 02:08:58;;;;;;;31.05;19.95;;;2.70;99.70;;;;;;5108046;28;20180;-78
2021/01/26 02:11:24;;;;;;;30.73;21.73;;;2.80;99.60;;;;;;5108318;28;20179;-78
2021/01/26 02:13:51;;;;;;;33.10;21.65;;;2.70;99.70;;;;;;5108010;28;20187;-78
2021/01/26 02:16:45;;;;;;;32.45;20.90;;;2.70;99.60;;;;;;5108079;28;20651;-78
2021/01/26 02:19:47;;;;;;;34.13;20.30;;;2.70;99.60;;;;;;5088786;28;20563;-78
2021/01/26 02:22:39;;;;;;;34.75;22.23;;;2.70;99.40;;;;;;5105894;28;20175;-78
2021/01/26 02:26:02;;;;;;;30.83;20.63;;;2.70;99.40;;;;;;5107041;28;20735;-78
2021/01/26 02:28:52;;;;;;;32.85;21.38;;;2.70;99.20;;;;;;5048418;28;20325;-77
2021/01/26 02:31:54;;;;;;;30.67;19.90;;;2.70;99.30;;;;;;5064486;28;20188;-78
2021/01/26 02:34:50;;;;;;;36.55;20.42;;;2.60;99.50;;;;;;5102128;28;20187;-77
2021/01/26 02:37:36;;;;;;;32.60;21.38;;;2.60;99.40;;;;;;5108251;28;20195;-78
2021/01/26 02:40:18;;;;;;;32.15;20.13;;;2.60;99.20;;;;;;5106832;28;20217;-78
2021/01/26 02:43:00;;;;;;;35.13;20.65;;;2.50;99.40;;;;;;5107600;28;20233;-78
2021/01/26 02:45:47;;;;;;;29.45;19.42;;;2.50;99.30;;;;;;5106297;28;20182;-77
2021/01/26 02:48:40;;;;;;;30.50;19.52;;;2.40;99.40;;;;;;5107391;28;20171;-78
2021/01/26 02:51:19;;;;;;;29.35;18.60;;;2.40;99.50;;;;;;5107771;28;20591;-78
2021/01/26 02:54:06;;;;;;;30.65;18.77;;;2.40;99.50;;;;;;5106542;28;20654;-78
2021/01/26 02:56:50;;;;;;;29.60;19.40;;;2.30;99.60;;;;;;5105897;28;20230;-78
2021/01/26 02:59:54;;;;;;;28.17;18.70;;;2.30;99.60;;;;;;5105777;28;20172;-78
2021/01/26 03:02:44;;;;;;;28.60;18.75;;;2.30;99.50;;;;;;5099730;28;20211;-78
2021/01/26 03:05:23;;;;;;;31.08;19.70;;;2.30;99.50;;;;;;5107379;28;20187;-78
2021/01/26 03:07:56;;;;;;;29.25;18.40;;;2.20;99.60;;;;;;5106321;28;20615;-78
2021/01/26 03:10:26;;;;;;;29.92;20.65;;;2.20;99.70;;;;;;5107017;28;20521;-78
2021/01/26 03:12:57;;;;;;;31.40;19.42;;;2.10;99.60;;;;;;5106487;28;20176;-78
2021/01/26 03:15:43;;;;;;;31.08;19.20;;;2.20;99.40;;;;;;5107548;28;20307;-78
2021/01/26 03:18:16;;;;;;;30.50;19.23;;;2.20;99.40;;;;;;5106492;28;20343;-78
2021/01/26 03:20:46;;;;;;;34.63;20.77;;;2.20;99.60;;;;;;5106968;28;20658;-78
2021/01/26 03:23:16;;;;;;;31.05;19.92;;;2.10;99.70;;;;;;5106960;28;20206;-78
2021/01/26 03:25:50;;;;;;;28.83;19.70;;;2.10;99.60;;;;;;5107731;28;20508;-78
2021/01/26 03:28:18;;;;;;;30.88;19.63;;;2.00;99.70;;;;;;5107280;28;20171;-78
2021/01/26 03:30:48;;;;;;;27.52;18.10;;;2.00;99.80;;;;;;5106863;28;20176;-78
2021/01/26 03:33:22;;;;;;;27.27;18.65;;;2.00;99.90;;;;;;5105576;28;20286;-78
2021/01/26 03:35:47;;;;;;;29.45;19.90;;;2.00;99.70;;;;;;5105757;28;20221;-78
2021/01/26 03:38:19;;;;;;;28.27;19.37;;;2.00;99.70;;;;;;5108265;28;20176;-78
2021/01/26 03:40:45;;;;;;;28.50;17.65;;;1.90;99.90;;;;;;5110212;28;20512;-78
2021/01/26 03:43:11;;;;;;;32.30;20.50;;;1.90;99.90;;;;;;5109711;28;20253;-78
2021/01/26 03:45:36;;;;;;;31.70;19.00;;;1.90;99.80;;;;;;5109934;28;20395;-78
2021/01/26 03:48:13;;;;;;;28.50;18.53;;;1.90;99.80;;;;;;5109488;28;20176;-78
2021/01/26 03:50:42;;;;;;;29.67;19.85;;;1.90;99.80;;;;;;5111170;28;20382;-77
2021/01/26 03:53:41;;;;;;;29.95;18.70;;;1.80;99.70;;;;;;5111126;28;20179;-78
2021/01/26 03:56:21;;;;;;;30.50;19.30;;;1.80;99.90;;;;;;5110594;28;20288;-78
2021/01/26 03:59:01;;;;;;;29.88;19.40;;;1.80;99.80;;;;;;5110341;28;20183;-78
2021/01/26 04:02:01;;;;;;;31.67;20.10;;;1.80;99.90;;;;;;5108778;28;20179;-78
2021/01/26 04:04:43;;;;;;;33.17;18.90;;;1.80;99.90;;;;;;5089504;28;20212;-78
2021/01/26 04:07:26;;;;;;;33.13;19.80;;;1.80;99.90;;;;;;5109625;28;20218;-78
2021/01/26 04:09:58;;;;;;;32.13;20.75;;;1.80;99.90;;;;;;5110423;28;20640;-78
2021/01/26 04:12:29;;;;;;;35.28;19.55;;;1.70;99.90;;;;;;5110380;28;20168;-78
2021/01/26 04:15:12;;;;;;;32.33;20.42;;;1.70;99.90;;;;;;5110857;28;20200;-78
2021/01/26 04:17:43;;;;;;;36.92;22.83;;;1.70;99.90;;;;;;5110768;27;20172;-78
2021/01/26 04:20:23;;;;;;;32.92;20.27;;;1.70;99.90;;;;;;5110403;28;20179;-78
2021/01/26 04:22:57;;;;;;;29.15;19.85;;;1.70;99.90;;;;;;5110025;28;20256;-78
2021/01/26 04:25:39;;;;;;;34.28;21.25;;;1.70;99.90;;;;;;5110387;28;20184;-78
2021/01/26 04:28:09;;;;;;;35.17;21.13;;;1.70;99.90;;;;;;5109278;28;20627;-78
2021/01/26 04:30:34;;;;;;;33.38;22.38;;;1.70;99.90;;;;;;5110615;28;20207;-78
2021/01/26 04:33:05;;;;;;;32.03;19.87;;;1.70;99.90;;;;;;5110928;28;20210;-78
2021/01/26 04:35:31;;;;;;;34.13;21.95;;;1.70;99.90;;;;;;5109263;28;20191;-78
2021/01/26 04:37:57;;;;;;;30.80;20.33;;;1.70;99.90;;;;;;5109489;28;20986;-78
2021/01/26 04:40:24;;;;;;;35.00;22.70;;;1.70;99.90;;;;;;5109766;28;20443;-78
2021/01/26 04:43:12;;;;;;;31.65;20.73;;;1.80;99.90;;;;;;5110872;28;20885;-78
2021/01/26 04:46:04;;;;;;;34.72;21.92;;;1.90;99.90;;;;;;5110349;28;20301;-78
2021/01/26 04:48:37;;;;;;;33.15;21.42;;;1.90;99.90;;;;;;5108858;28;20175;-78
2021/01/26 04:51:19;;;;;;;32.55;20.65;;;2.00;99.70;;;;;;5109245;28;20152;-78
2021/01/26 04:54:17;;;;;;;33.75;21.70;;;1.90;99.90;;;;;;5108362;28;20601;-78
2021/01/26 04:57:13;;;;;;;32.53;19.73;;;1.90;99.90;;;;;;5075140;28;20317;-78
2021/01/26 05:00:23;;;;;;;32.75;19.55;;;2.00;99.50;;;;;;5108863;28;20183;-78
2021/01/26 05:03:13;;;;;;;31.92;18.23;;;2.00;99.70;;;;;;5110387;28;20199;-78
2021/01/26 05:05:42;;;;;;;31.95;18.50;;;1.90;99.80;;;;;;5109872;28;20168;-78
2021/01/26 05:08:18;;;;;;;30.20;18.98;;;1.90;99.90;;;;;;5107557;28;20706;-78
2021/01/26 05:10:50;;;;;;;31.42;19.50;;;2.00;99.50;;;;;;5108873;28;20813;-78
2021/01/26 05:13:26;;;;;;;27.30;19.48;;;2.00;99.30;;;;;;5109230;28;20575;-78
2021/01/26 05:16:04;;;;;;;32.40;20.25;;;2.00;99.30;;;;;;5108326;28;20183;-78
2021/01/26 05:18:48;;;;;;;32.08;18.63;;;2.00;99.50;;;;;;5109209;28;20686;-78
2021/01/26 05:21:31;;;;;;;31.38;19.17;;;2.00;99.60;;;;;;5109500;28;20182;-78
2021/01/26 05:24:05;;;;;;;29.38;18.30;;;2.10;99.10;;;;;;5106911;28;20246;-78
2021/01/26 05:26:30;;;;;;;26.25;15.00;;;2.50;99.30;;;;;;5108320;28;20562;-78
2021/01/26 05:28:57;;;;;;;27.60;16.23;;;3.80;99.20;;;;;;5109295;28;20172;-78
2021/01/26 05:31:28;;;;;;;27.83;17.10;;;4.40;98.70;;;;;;5109303;28;20179;-78
2021/01/26 05:34:06;;;;;;;27.50;15.77;;;4.90;98.70;;;;;;5108022;28;20176;-78
2021/01/26 05:36:32;;;;;;;27.10;14.50;;;5.20;98.00;;;;;;5108400;28;20183;-78
2021/01/26 05:38:59;;;;;;;5.28;4.03;;;5.40;98.50;;;;;;5109256;28;20549;-77
2021/01/26 05:41:25;;;;;;;38.65;19.10;;;5.70;98.60;;;;;;5108492;28;20175;-78
2021/01/26 05:43:53;;;;;;;41.38;22.05;;;6.00;98.10;;;;;;5108672;28;20214;-78
2021/01/26 05:46:37;;;;;;;28.25;13.25;;;6.20;97.60;;;;;;5109525;28;20231;-78
2021/01/26 05:49:03;;;;;;;38.08;20.73;;;6.40;97.50;;;;;;5108242;28;20180;-78
2021/01/26 05:51:29;;;;;;;31.00;19.53;;;5.10;93.50;;;;;;5109182;28;20171;-78
2021/01/26 05:54:21;;;;;;;31.08;19.42;;;4.10;94.20;;;;;;5108840;28;20180;-77
2021/01/26 05:56:50;;;;;;;27.50;17.98;;;3.60;95.30;;;;;;5105656;28;20235;-78
2021/01/26 05:59:36;;;;;;;29.80;18.67;;;3.00;96.40;;;;;;5108700;28;20251;-78
2021/01/26 06:02:21;;;;;;;28.33;18.75;;;2.80;97.00;;;;;;5108173;28;20201;-78
2021/01/26 06:04:47;;;;;;;29.90;19.35;;;2.60;97.50;;;;;;5108914;28;20655;-78
2021/01/26 06:07:23;;;;;;;31.70;18.50;;;2.70;97.10;;;;;;5109056;28;21083;-78
2021/01/26 06:09:50;;;;;;;31.75;18.42;;;2.60;97.40;;;;;;5102276;28;20183;-78
2021/01/26 06:12:26;;;;;;;31.33;18.55;;;2.50;97.50;;;;;;5108008;28;20262;-78
2021/01/26 06:14:55;;;;;;;27.92;18.10;;;2.30;97.90;;;;;;5097396;28;20183;-79
2021/01/26 06:17:39;;;;;;;33.47;21.52;;;2.00;98.70;;;;;;5108929;28;20264;-78
2021/01/26 06:20:13;;;;;;;37.53;23.55;;;1.90;99.20;;;;;;5107732;28;20258;-78
2021/01/26 06:22:39;;;;;;;30.05;19.58;;;1.90;99.20;;;;;;5107971;28;20199;-78
2021/01/26 06:25:34;;;;;;;35.53;20.37;;;1.90;99.10;;;;;;5108105;28;20236;-78
2021/01/26 06:28:18;;;;;;;30.90;19.90;;;1.90;99.10;;;;;;5107441;28;20446;-78
2021/01/26 06:31:04;;;;;;;31.73;20.23;;;1.80;99.20;;;;;;5088333;28;20195;-78
2021/01/26 06:33:33;;;;;;;33.00;21.58;;;1.80;99.10;;;;;;5091533;27;20602;-79
2021/01/26 06:36:12;;;;;;;30.23;20.13;;;1.80;99.30;;;;;;5107770;28;20182;-79
2021/01/26 06:39:03;;;;;;;32.40;19.05;;;1.70;99.60;;;;;;5104029;28;20172;-79
2021/01/26 06:41:48;;;;;;;29.30;18.55;;;1.70;99.40;;;;;;5108173;28;20187;-79
2021/01/26 06:44:35;;;;;;;29.42;19.48;;;1.70;99.40;;;;;;5107024;28;20223;-78
2021/01/26 06:47:24;;;;;;;30.48;18.02;;;1.70;99.50;;;;;;5107793;28;20639;-78
2021/01/26 06:50:32;;;;;;;27.08;17.20;;;1.70;99.50;;;;;;5107703;28;20534;-78
2021/01/26 06:53:34;;;;;;;27.98;18.55;;;1.60;99.50;;;;;;5087258;28;20221;-78
2021/01/26 06:56:30;;;;;;;30.08;18.88;;;1.70;99.20;;;;;;5086553;28;20620;-78
2021/01/26 06:59:16;;;;;;;28.90;19.00;;;1.70;99.10;;;;;;5087705;28;20188;-77
2021/01/26 07:01:54;;;;;;;26.73;17.15;;;1.70;99.10;;;;;;5086735;28;20601;-79
2021/01/26 07:04:41;;;;;;;31.15;19.52;;;1.70;99.40;;;;;;5087746;28;20507;-78
2021/01/26 07:07:41;;;;;;;27.50;17.60;;;1.70;99.10;;;;;;5119858;28;20602;-79
2021/01/26 07:10:29;;;;;;;28.50;17.45;;;1.70;99.10;;;;;;5113864;28;20184;-78
2021/01/26 07:13:15;;;;;;;31.25;19.60;;;1.70;98.80;;;;;;5109648;27;20700;-78
2021/01/26 07:15:41;;;;;;;27.70;17.88;;;1.70;99.00;;;;;;5093964;27;20344;-78
2021/01/26 07:18:39;;;;;;;26.77;18.50;;;1.80;98.90;;;;;;5130370;27;20290;-78
2021/01/26 07:21:22;;;;;;;28.38;17.38;;;1.80;99.00;;;;;;5093565;27;20295;-79
2021/01/26 07:23:53;;;;;;;25.00;16.27;;;1.80;98.90;;;;;;5106054;28;20207;-79
2021/01/26 07:26:35;;;;;;;27.63;17.25;;;1.80;98.60;;;;;;5102447;27;20414;-79
2021/01/26 07:29:19;;;;;;;27.48;17.67;;;1.80;98.70;;;;;;5104080;27;20237;-78
2021/01/26 07:31:58;;;;;;;26.85;16.23;;;1.80;98.70;;;;;;5109886;27;20208;-78
2021/01/26 07:34:34;;;;;;;24.67;17.55;;;1.80;98.60;;;;;;5112127;28;20561;-78
2021/01/26 07:37:12;;;;;;;26.95;18.40;;;1.80;98.80;;;;;;5115488;27;20242;-78
2021/01/26 07:39:46;;;;;;;25.15;17.20;;;1.90;98.60;;;;;;5104291;28;20184;-79
2021/01/26 07:42:22;;;;;;;26.15;17.50;;;1.90;98.50;;;;;;5107803;28;20244;-79
2021/01/26 07:45:32;;;;;;;24.30;17.42;;;1.90;98.60;;;;;;5109928;28;20260;-79
2021/01/26 07:48:09;;;;;;;28.77;18.30;;;2.00;98.30;;;;;;5099558;27;20592;-79
2021/01/26 07:50:48;;;;;;;25.08;17.33;;;2.00;98.70;;;;;;5112279;27;20184;-79
2021/01/26 07:53:39;;;;;;;28.42;18.50;;;2.10;98.60;;;;;;5114179;27;20188;-79
2021/01/26 07:56:14;;;;;;;29.65;18.67;;;2.10;98.30;;;;;;5118128;27;20216;-79
2021/01/26 07:58:44;;;;;;;29.30;18.67;;;2.10;98.40;;;;;;5109151;28;20191;-79
2021/01/26 08:01:12;;;;;;;32.10;19.92;;;2.20;98.20;;;;;;5105181;28;20191;-79
2021/01/26 08:03:38;;;;;;;28.98;18.73;;;2.20;98.10;;;;;;5117642;27;20216;-79
2021/01/26 08:06:04;;;;;;;30.03;18.50;;;2.30;98.40;;;;;;5109734;27;20180;-79
2021/01/26 08:08:34;;;;;;;27.70;18.37;;;2.30;98.10;;;;;;5105684;28;20208;-79
2021/01/26 08:11:20;;;;;;;25.95;18.90;;;2.40;97.70;;;;;;5112741;27;21202;-79
2021/01/26 08:13:55;;;;;;;30.20;20.80;;;2.30;97.90;;;;;;5101537;28;20191;-79
2021/01/26 08:16:56;;;;;;;28.50;18.20;;;2.50;97.90;;;;;;5113824;28;20194;-78
2021/01/26 08:19:42;;;;;;;38.63;26.20;;;2.50;97.50;;;;;;5091768;28;20242;-79
2021/01/26 08:22:36;;;;;;;36.05;23.45;;;2.40;97.60;;;;;;5097639;28;20192;-79
2021/01/26 08:25:29;;;;;;;36.42;24.05;;;2.50;97.40;;;;;;5086930;28;20291;-79
2021/01/26 08:28:07;;;;;;;32.80;21.75;;;2.50;97.40;;;;;;5114844;28;20198;-79
2021/01/26 08:30:35;;;;;;;34.70;24.35;;;2.50;97.20;;;;;;5111166;28;20195;-79
2021/01/26 08:33:14;;;;;;;30.42;21.55;;;2.60;97.50;;;;;;5102260;28;20986;-78
2021/01/26 08:36:02;;;;;;;31.85;22.20;;;2.60;97.20;;;;;;5115818;27;20209;-78
2021/01/26 08:38:52;;;;;;;28.65;19.52;;;2.70;97.10;;;;;;5104705;28;20200;-77
2021/01/26 08:41:45;;;;;;;29.35;20.95;;;2.80;96.50;;;;;;5108745;28;20237;-78
2021/01/26 08:44:19;;;;;;;29.13;19.50;;;2.80;96.60;;;;;;5110190;27;20209;-79
2021/01/26 08:46:47;;;;;;;29.65;20.90;;;3.00;96.30;;;;;;5108079;27;20197;-78
2021/01/26 08:49:33;;;;;;;30.85;20.20;;;3.00;96.30;;;;;;5106222;28;20179;-79
2021/01/26 08:52:20;;;;;;;30.45;20.02;;;2.90;96.70;;;;;;5099013;28;20180;-78
2021/01/26 08:54:49;;;;;;;28.58;20.13;;;3.10;96.40;;;;;;5112001;27;20655;-78
2021/01/26 08:57:27;;;;;;;29.80;19.83;;;3.30;95.90;;;;;;5113266;28;20224;-79
2021/01/26 09:00:12;;;;;;;30.75;21.30;;;3.20;96.00;;;;;;5112449;28;20191;-78
2021/01/26 09:02:44;;;;;;;32.60;19.48;;;3.30;96.10;;;;;;5096890;28;20663;-78
2021/01/26 09:05:10;;;;;;;31.20;21.27;;;3.50;95.90;;;;;;5112212;28;20666;-78
2021/01/26 09:07:53;;;;;;;30.02;20.30;;;3.60;95.60;;;;;;5113358;28;20187;-78
2021/01/26 09:10:46;;;;;;;30.40;19.08;;;3.80;95.10;;;;;;5101077;28;20176;-78
2021/01/26 09:13:21;;;;;;;28.75;19.65;;;3.90;95.10;;;;;;5097323;28;20215;-77
2021/01/26 09:15:52;;;;;;;26.17;19.00;;;4.30;94.30;;;;;;5100630;28;20190;-78
2021/01/26 09:18:20;;;;;;;25.63;17.92;;;4.40;93.30;;;;;;5110353;28;20184;-78
2021/01/26 09:20:49;;;;;;;25.15;18.63;;;4.50;93.00;;;;;;5112786;28;20555;-78
2021/01/26 09:23:19;;;;;;;29.45;20.58;;;4.50;93.10;;;;;;5108376;28;20224;-78
2021/01/26 09:25:45;;;;;;;25.80;17.45;;;4.30;92.70;;;;;;5113750;28;20218;-78
2021/01/26 09:28:13;;;;;;;24.70;18.30;;;4.20;93.00;;;;;;5110732;28;20172;-78
2021/01/26 09:30:50;;;;;;;25.80;18.05;;;4.20;92.90;;;;;;5109640;28;21226;-78
2021/01/26 09:33:22;;;;;;;26.75;18.20;;;4.30;92.90;;;;;;5111133;27;20208;-79
2021/01/26 09:35:52;;;;;;;26.05;19.02;;;4.30;93.20;;;;;;5109713;28;20186;-78
2021/01/26 09:38:22;;;;;;;26.35;19.65;;;4.40;92.90;;;;;;5109659;28;20282;-78
2021/01/26 09:41:16;;;;;;;25.40;18.73;;;4.60;92.80;;;;;;5110456;28;20205;-78
2021/01/26 09:43:47;;;;;;;27.77;17.63;;;4.70;92.60;;;;;;5081367;28;20207;-78
2021/01/26 09:46:15;;;;;;;62.75;35.15;;;4.80;92.50;;;;;;5104878;27;20655;-78
2021/01/26 09:48:48;;;;;;;35.38;25.10;;;5.00;93.20;;;;;;5104869;28;20198;-78
2021/01/26 09:51:21;;;;;;;31.10;22.23;;;5.20;92.60;;;;;;5097415;28;20578;-79
2021/01/26 09:53:49;;;;;;;29.88;20.67;;;5.30;92.10;;;;;;5110607;27;20275;-78
2021/01/26 09:56:21;;;;;;;34.78;23.85;;;5.30;91.00;;;;;;5106636;27;20224;-78
2021/01/26 09:58:50;;;;;;;36.53;24.10;;;5.20;91.60;;;;;;5098056;28;20570;-78
2021/01/26 10:01:16;;;;;;;38.03;24.63;;;5.00;91.20;;;;;;5109588;27;20180;-78
2021/01/26 10:03:42;;;;;;;81.17;43.80;;;4.80;91.20;;;;;;5115462;27;20257;-78
2021/01/26 10:06:09;;;;;;;42.40;27.60;;;4.80;92.00;;;;;;5110243;27;20431;-78
2021/01/26 10:08:34;;;;;;;28.27;19.67;;;4.70;91.70;;;;;;5105854;28;20420;-79
2021/01/26 10:11:10;;;;;;;29.77;22.40;;;4.60;92.30;;;;;;5104199;28;20214;-79
2021/01/26 10:13:37;;;;;;;31.75;21.23;;;4.50;92.90;;;;;;5116368;27;20274;-79
2021/01/26 10:16:44;;;;;;;30.92;22.00;;;4.40;92.60;;;;;;5103052;28;20228;-79
2021/01/26 10:19:20;;;;;;;28.50;20.88;;;4.20;92.90;;;;;;5047219;28;20194;-79
2021/01/26 10:21:46;;;;;;;31.95;22.02;;;4.20;93.10;;;;;;5069443;28;20203;-79
2021/01/26 10:24:25;;;;;;;28.90;20.57;;;4.40;92.60;;;;;;5081560;28;20228;-79
2021/01/26 10:27:12;;;;;;;29.08;22.23;;;4.40;93.20;;;;;;5102370;28;20410;-79
2021/01/26 10:29:43;;;;;;;30.50;19.38;;;4.30;93.60;;;;;;5096420;28;20675;-78
2021/01/26 10:32:11;;;;;;;30.67;20.40;;;4.40;94.00;;;;;;5103022;28;20184;-78
2021/01/26 10:34:43;;;;;;;30.23;20.02;;;4.40;93.50;;;;;;5107911;28;20656;-79
2021/01/26 10:37:24;;;;;;;27.83;20.45;;;4.50;93.00;;;;;;5108489;28;20180;-79
2021/01/26 10:40:11;;;;;;;25.98;18.63;;;4.50;92.00;;;;;;5109294;28;20183;-80
2021/01/26 10:42:39;;;;;;;30.15;20.27;;;4.40;93.00;;;;;;5111223;28;20738;-79
2021/01/26 10:45:06;;;;;;;29.65;21.05;;;4.40;92.40;;;;;;5107913;28;20183;-77
2021/01/26 10:47:33;;;;;;;24.90;17.52;;;4.40;92.50;;;;;;5110040;28;20194;-77
2021/01/26 10:50:08;;;;;;;27.92;18.20;;;4.40;92.50;;;;;;5099086;28;20184;-77
2021/01/26 10:52:49;;;;;;;29.40;18.75;;;4.40;92.40;;;;;;5094164;28;20261;-77
2021/01/26 10:55:20;;;;;;;29.92;21.55;;;4.40;92.50;;;;;;5090745;28;20255;-77
2021/01/26 10:57:47;;;;;;;28.20;18.80;;;4.40;93.10;;;;;;5107575;28;20315;-78
2021/01/26 11:00:17;;;;;;;27.27;17.45;;;4.50;91.90;;;;;;5092298;28;20216;-77
2021/01/26 11:02:43;;;;;;;30.73;19.00;;;4.50;91.90;;;;;;5108559;28;20207;-78
2021/01/26 11:05:11;;;;;;;27.47;18.30;;;4.40;91.90;;;;;;5102986;28;20249;-79
2021/01/26 11:07:37;;;;;;;28.52;18.27;;;4.40;92.10;;;;;;5107953;28;20431;-79
2021/01/26 11:10:09;;;;;;;24.80;17.20;;;4.50;92.10;;;;;;5097562;28;20216;-78
2021/01/26 11:12:39;;;;;;;25.20;17.08;;;4.50;91.40;;;;;;5106911;28;20399;-78
2021/01/26 11:15:11;;;;;;;30.98;18.75;;;4.50;91.20;;;;;;5104527;28;20262;-78
2021/01/26 11:17:36;;;;;;;22.58;16.75;;;4.40;91.60;;;;;;5102630;28;20262;-78
2021/01/26 11:20:04;;;;;;;35.67;19.40;;;4.30;91.70;;;;;;5098733;28;20259;-80
2021/01/26 11:22:29;;;;;;;24.60;16.60;;;4.40;91.70;;;;;;5114146;28;20175;-79
2021/01/26 11:24:55;;;;;;;23.13;15.87;;;4.50;91.60;;;;;;5092379;28;20172;-79
2021/01/26 11:27:21;;;;;;;21.83;15.13;;;4.50;91.50;;;;;;5089671;28;20748;-79
2021/01/26 11:29:48;;;;;;;29.40;19.70;;;4.50;91.40;;;;;;5094077;28;20188;-79
2021/01/26 11:32:14;;;;;;;23.88;15.80;;;4.60;91.70;;;;;;5103689;28;20237;-79
2021/01/26 11:34:40;;;;;;;31.10;20.63;;;4.60;92.20;;;;;;5107449;28;20187;-79
2021/01/26 11:37:05;;;;;;;26.03;19.80;;;4.70;91.90;;;;;;5098166;28;20609;-79
2021/01/26 11:39:31;;;;;;;38.30;23.87;;;4.70;91.30;;;;;;5106417;28;20188;-79
2021/01/26 11:41:57;;;;;;;38.47;23.67;;;4.80;91.30;;;;;;5115722;28;20670;-78
2021/01/26 11:44:22;;;;;;;32.10;20.37;;;4.80;91.80;;;;;;5107930;28;20210;-79
2021/01/26 11:46:48;;;;;;;37.93;23.50;;;4.80;91.40;;;;;;5099618;28;20184;-78
2021/01/26 11:49:13;;;;;;;31.83;20.50;;;4.90;91.80;;;;;;5093172;28;20191;-79
2021/01/26 11:51:39;;;;;;;43.83;28.10;;;4.90;91.20;;;;;;5106652;28;20884;-79
2021/01/26 11:54:05;;;;;;;33.13;21.20;;;4.90;91.10;;;;;;5110069;28;20258;-79
2021/01/26 11:56:31;;;;;;;27.70;18.00;;;4.90;91.20;;;;;;5111818;28;20224;-80
2021/01/26 11:58:56;;;;;;;27.70;19.90;;;4.90;91.00;;;;;;5108816;28;20180;-79
2021/01/26 12:01:22;;;;;;;28.57;20.40;;;5.00;91.90;;;;;;5114764;28;20427;-79
2021/01/26 12:03:48;;;;;;;30.40;19.47;;;5.00;92.00;;;;;;5111447;28;20235;-79
2021/01/26 12:06:13;;;;;;;34.13;20.27;;;5.10;92.10;;;;;;5115966;28;20263;-79
2021/01/26 12:08:39;;;;;;;29.30;19.87;;;5.20;92.50;;;;;;5109852;28;20230;-79
2021/01/26 12:11:06;;;;;;;27.07;18.43;;;5.30;91.30;;;;;;5109447;28;20176;-79
2021/01/26 12:13:32;;;;;;;24.52;17.13;;;5.40;91.00;;;;;;5110161;28;20226;-79
2021/01/26 12:15:58;;;;;;;27.85;18.80;;;5.50;91.30;;;;;;5098237;28;20253;-79
2021/01/26 12:18:24;;;;;;;28.33;19.17;;;5.60;91.80;;;;;;5109175;28;20242;-79
2021/01/26 12:20:50;;;;;;;27.77;18.73;;;5.70;91.60;;;;;;5094890;28;20220;-79
2021/01/26 12:23:15;;;;;;;24.20;17.50;;;5.90;91.00;;;;;;5113344;28;20556;-79
2021/01/26 12:25:41;;;;;;;23.07;16.87;;;5.80;90.20;;;;;;5109785;27;20596;-78
2021/01/26 12:28:09;;;;;;;25.45;17.77;;;5.70;89.90;;;;;;5103931;28;20725;-79
2021/01/26 12:30:34;;;;;;;27.42;19.02;;;5.70;90.20;;;;;;5105738;28;20188;-79
2021/01/26 12:33:00;;;;;;;26.80;19.20;;;5.80;90.40;;;;;;5092165;28;20191;-78
2021/01/26 12:35:28;;;;;;;31.30;19.80;;;5.70;90.40;;;;;;5103439;27;20438;-79
2021/01/26 12:37:54;;;;;;;30.80;20.63;;;5.60;90.40;;;;;;5107651;27;20184;-79
2021/01/26 12:40:20;;;;;;;24.07;18.27;;;5.60;90.80;;;;;;5101238;27;20191;-79
2021/01/26 12:42:46;;;;;;;28.20;19.88;;;5.60;90.80;;;;;;5096738;28;20212;-79
2021/01/26 12:45:14;;;;;;;26.43;18.83;;;5.70;90.70;;;;;;5112989;27;20303;-79
2021/01/26 12:47:40;;;;;;;25.52;17.65;;;5.70;90.50;;;;;;5098588;27;20944;-79
2021/01/26 12:50:09;;;;;;;26.13;19.80;;;5.80;91.40;;;;;;5100649;28;20187;-79
2021/01/26 12:52:34;;;;;;;24.88;18.65;;;5.80;90.50;;;;;;5114021;28;20931;-79
2021/01/26 12:55:00;;;;;;;29.20;17.90;;;5.80;89.90;;;;;;5110079;28;20180;-78
2021/01/26 12:57:26;;;;;;;23.20;16.40;;;5.80;90.30;;;;;;5098835;28;20241;-79
2021/01/26 12:59:52;;;;;;;25.50;17.00;;;5.80;89.90;;;;;;5107477;28;20188;-80
2021/01/26 13:02:22;;;;;;;21.38;14.82;;;5.90;90.00;;;;;;5101614;28;20243;-80
2021/01/26 13:04:48;;;;;;;28.98;19.67;;;5.80;89.00;;;;;;5105995;28;20674;-79
2021/01/26 13:07:14;;;;;;;40.53;25.17;;;5.70;89.90;;;;;;5107680;28;20187;-80
2021/01/26 13:09:40;;;;;;;35.10;21.60;;;5.80;88.50;;;;;;5109740;27;20237;-78
2021/01/26 13:12:06;;;;;;;27.60;17.70;;;5.90;89.10;;;;;;5115619;28;20219;-80